createdAt,value
2019-04-29T00:01:25.604Z,72.20
2019-04-29T00:03:54.274Z,72.30
2019-04-29T00:06:22.964Z,72.30
2019-04-29T00:08:51.658Z,72.40
2019-04-29T00:11:20.338Z,72.30
2019-04-29T00:13:49.030Z,72.40
2019-04-29T00:16:19.385Z,72.50
2019-04-29T00:19:04.878Z,72.50
2019-04-29T00:21:33.590Z,72.50
2019-04-29T00:24:04.038Z,72.50
2019-04-29T00:26:32.777Z,72.50
2019-04-29T00:29:01.490Z,72.40
2019-04-29T00:31:30.171Z,72.40
2019-04-29T00:33:58.850Z,72.30
2019-04-29T00:36:29.192Z,72.30
2019-04-29T00:39:11.738Z,72.30
2019-04-29T00:41:57.122Z,72.50
2019-04-29T00:44:25.809Z,72.40
2019-04-29T00:46:54.490Z,72.40
2019-04-29T00:49:23.218Z,72.30
2019-04-29T00:51:51.894Z,72.40
2019-04-29T00:54:22.223Z,72.40
2019-04-29T00:56:50.926Z,72.50
2019-04-29T00:59:19.613Z,72.50
2019-04-29T01:01:48.369Z,72.40
2019-04-29T01:04:17.086Z,72.30
2019-04-29T01:06:45.774Z,72.00
2019-04-29T01:09:14.831Z,72.20
2019-04-29T01:11:43.518Z,72.30
2019-04-29T01:14:12.188Z,72.30
2019-04-29T01:16:40.913Z,72.40
2019-04-29T01:19:09.590Z,72.40
2019-04-29T01:21:38.271Z,72.40
2019-04-29T01:24:06.942Z,72.50
2019-04-29T01:26:55.798Z,72.50
2019-04-29T01:29:26.133Z,72.30
2019-04-29T01:31:54.819Z,72.10
2019-04-29T01:34:27.907Z,72.40
2019-04-29T01:36:56.586Z,72.40
2019-04-29T01:39:26.914Z,72.40
2019-04-29T01:42:09.221Z,72.30
2019-04-29T01:44:38.130Z,72.40
2019-04-29T01:47:06.830Z,72.40
2019-04-29T01:49:35.539Z,72.50
2019-04-29T01:52:04.213Z,72.50
2019-04-29T01:54:32.882Z,72.60
2019-04-29T01:57:01.594Z,72.40
2019-04-29T01:59:30.279Z,72.50
2019-04-29T02:01:58.976Z,72.60
2019-04-29T02:04:27.653Z,72.70
2019-04-29T02:06:56.330Z,72.70
2019-04-29T02:09:26.650Z,72.70
2019-04-29T02:11:55.370Z,72.90
2019-04-29T02:14:24.103Z,72.80
2019-04-29T02:16:52.774Z,72.70
2019-04-29T02:19:21.487Z,72.80
2019-04-29T02:21:54.628Z,72.90
2019-04-29T02:24:23.313Z,73.10
2019-04-29T02:26:52.098Z,73.10
2019-04-29T02:29:20.774Z,73.10
2019-04-29T02:31:49.437Z,73.10
2019-04-29T02:34:18.152Z,72.90
2019-04-29T02:36:46.820Z,72.90
2019-04-29T02:39:29.147Z,73.10
2019-04-29T02:42:02.379Z,73.00
2019-04-29T02:44:31.050Z,73.00
2019-04-29T02:46:59.747Z,73.00
2019-04-29T02:49:28.437Z,73.30
2019-04-29T02:51:57.119Z,73.20
2019-04-29T02:54:27.690Z,73.20
2019-04-29T02:57:01.011Z,73.40
2019-04-29T02:59:31.335Z,73.40
2019-04-29T03:02:20.067Z,73.30
2019-04-29T03:05:06.689Z,73.20
2019-04-29T03:07:35.402Z,73.20
2019-04-29T03:10:05.727Z,73.10
2019-04-29T03:12:34.947Z,73.30
2019-04-29T03:15:04.668Z,73.10
2019-04-29T03:17:33.348Z,73.20
2019-04-29T03:20:09.435Z,74.30
2019-04-29T03:22:39.795Z,74.10
2019-04-29T03:25:08.469Z,73.40
2019-04-29T03:27:37.186Z,73.50
2019-04-29T03:30:05.985Z,73.60
2019-04-29T03:32:34.718Z,73.60
2019-04-29T03:35:03.475Z,73.50
2019-04-29T03:37:32.180Z,73.70
2019-04-29T03:40:00.866Z,73.60
2019-04-29T03:42:29.542Z,73.60
2019-04-29T03:44:58.270Z,73.50
2019-04-29T03:47:26.935Z,73.60
2019-04-29T03:49:56.040Z,73.60
2019-04-29T03:52:24.753Z,73.60
2019-04-29T03:54:53.427Z,73.50
2019-04-29T03:57:22.115Z,73.60
2019-04-29T03:59:50.831Z,74.20
2019-04-29T04:02:24.041Z,74.20
2019-04-29T04:04:57.335Z,73.60
2019-04-29T04:07:46.313Z,73.60
2019-04-29T04:10:20.581Z,73.60
2019-04-29T04:12:49.273Z,73.60
2019-04-29T04:15:17.939Z,73.60
2019-04-29T04:17:57.292Z,73.70
2019-04-29T04:20:26.044Z,73.80
2019-04-29T04:22:54.731Z,73.80
2019-04-29T04:25:23.438Z,73.70
2019-04-29T04:27:52.488Z,73.80
2019-04-29T04:30:21.172Z,73.70
2019-04-29T04:32:49.874Z,73.60
2019-04-29T04:35:18.568Z,73.70
2019-04-29T04:37:47.507Z,73.70
2019-04-29T04:40:17.851Z,73.50
2019-04-29T04:42:46.526Z,73.40
2019-04-29T04:45:15.204Z,73.30
2019-04-29T04:47:43.919Z,73.70
2019-04-29T04:50:12.597Z,73.90
2019-04-29T04:52:41.531Z,73.70
2019-04-29T04:55:11.986Z,73.60
2019-04-29T04:57:41.032Z,73.60
2019-04-29T05:00:11.355Z,73.70
2019-04-29T05:02:40.051Z,73.60
2019-04-29T05:05:09.202Z,73.60
2019-04-29T05:07:37.880Z,73.80
2019-04-29T05:10:06.585Z,73.70
2019-04-29T05:12:35.258Z,73.70
2019-04-29T05:15:04.490Z,73.70
2019-04-29T05:17:33.171Z,73.70
2019-04-29T05:20:01.859Z,73.90
2019-04-29T05:22:30.547Z,74.00
2019-04-29T05:25:00.821Z,74.00
2019-04-29T05:27:29.491Z,75.00
2019-04-29T05:29:58.176Z,74.00
2019-04-29T05:32:26.875Z,73.90
2019-04-29T05:35:12.267Z,74.00
2019-04-29T05:37:42.619Z,74.00
2019-04-29T05:40:11.299Z,73.90
2019-04-29T05:42:39.970Z,74.20
2019-04-29T05:45:12.995Z,74.20
2019-04-29T05:47:43.323Z,74.10
2019-04-29T05:50:25.540Z,74.20
2019-04-29T05:53:04.930Z,74.50
2019-04-29T05:55:35.237Z,74.20
2019-04-29T05:58:12.707Z,74.10
2019-04-29T06:00:44.690Z,74.00
2019-04-29T06:03:13.377Z,74.00
2019-04-29T06:05:42.067Z,74.00
2019-04-29T06:08:10.771Z,74.00
2019-04-29T06:10:42.006Z,74.00
2019-04-29T06:13:09.780Z,74.20
2019-04-29T06:15:38.478Z,74.30
2019-04-29T06:18:07.152Z,74.50
2019-04-29T06:20:35.827Z,74.60
2019-04-29T06:23:04.541Z,74.50
2019-04-29T06:25:33.278Z,74.50
2019-04-29T06:28:02.310Z,74.30
2019-04-29T06:30:31.023Z,74.50
2019-04-29T06:32:59.707Z,74.40
2019-04-29T06:35:28.395Z,74.50
2019-04-29T06:37:57.120Z,74.50
2019-04-29T06:40:25.794Z,74.50
2019-04-29T06:42:55.158Z,74.80
2019-04-29T06:45:24.015Z,74.60
2019-04-29T06:47:53.427Z,74.60
2019-04-29T06:50:22.106Z,74.50
2019-04-29T06:52:50.827Z,74.50
2019-04-29T06:55:19.522Z,74.40
2019-04-29T06:57:48.211Z,74.50
2019-04-29T07:00:17.550Z,74.70
2019-04-29T07:02:49.788Z,74.90
2019-04-29T07:05:17.658Z,74.40
2019-04-29T07:07:46.371Z,74.80
2019-04-29T07:10:16.564Z,75.50
2019-04-29T07:12:47.438Z,74.90
2019-04-29T07:15:15.738Z,75.00
2019-04-29T07:17:44.427Z,74.80
2019-04-29T07:20:13.114Z,75.20
2019-04-29T07:22:41.839Z,74.90
2019-04-29T07:25:10.521Z,74.80
2019-04-29T07:27:43.498Z,74.60
2019-04-29T07:30:09.591Z,74.60
2019-04-29T07:32:42.080Z,74.80
2019-04-29T07:35:09.844Z,75.00
2019-04-29T07:37:38.964Z,75.10
2019-04-29T07:40:09.302Z,75.40
2019-04-29T07:42:38.215Z,76.00
2019-04-29T07:45:11.619Z,74.90
2019-04-29T07:47:55.570Z,75.30
2019-04-29T07:50:11.993Z,75.10
2019-04-29T07:52:40.816Z,75.30
2019-04-29T07:55:09.490Z,75.40
2019-04-29T07:57:38.180Z,75.40
2019-04-29T08:00:12.422Z,75.60
2019-04-29T08:02:38.876Z,75.10
2019-04-29T08:05:07.939Z,75.20
2019-04-29T08:07:37.986Z,75.40
2019-04-29T08:10:22.875Z,75.50
2019-04-29T08:12:39.754Z,75.30
2019-04-29T08:15:09.150Z,75.70
2019-04-29T08:17:38.386Z,75.80
2019-04-29T08:20:07.842Z,75.70
2019-04-29T08:22:36.548Z,75.50
2019-04-29T08:25:07.008Z,75.70
2019-04-29T08:27:40.726Z,75.60
2019-04-29T08:30:11.445Z,75.70
2019-04-29T08:32:39.101Z,75.80
2019-04-29T08:35:08.173Z,76.20
2019-04-29T08:37:36.908Z,76.00
2019-04-29T08:40:15.946Z,75.90
2019-04-29T08:42:44.447Z,75.70
2019-04-29T08:45:25.890Z,75.50
2019-04-29T08:47:54.748Z,75.40
2019-04-29T08:50:23.422Z,75.70
2019-04-29T08:52:52.128Z,75.70
2019-04-29T08:55:20.815Z,75.10
2019-04-29T08:57:49.490Z,75.50
2019-04-29T09:00:18.197Z,75.40
2019-04-29T09:02:49.347Z,75.40
2019-04-29T09:05:18.204Z,75.30
2019-04-29T09:07:46.977Z,75.90
2019-04-29T09:10:15.658Z,75.40
2019-04-29T09:12:44.347Z,75.70
2019-04-29T09:15:13.068Z,75.50
2019-04-29T09:17:41.758Z,75.40
2019-04-29T09:20:10.434Z,75.40
2019-04-29T09:22:40.787Z,75.50
2019-04-29T09:25:11.749Z,75.50
2019-04-29T09:27:45.061Z,75.20
2019-04-29T09:30:14.088Z,75.40
2019-04-29T09:32:42.779Z,75.70
2019-04-29T09:35:11.466Z,75.70
2019-04-29T09:37:40.170Z,76.00
2019-04-29T09:40:11.797Z,75.70
2019-04-29T09:42:50.223Z,75.40
2019-04-29T09:45:26.183Z,75.20
2019-04-29T09:47:54.910Z,75.40
2019-04-29T09:50:23.599Z,75.30
2019-04-29T09:52:52.348Z,75.60
2019-04-29T09:55:22.123Z,76.00
2019-04-29T09:57:50.795Z,75.70
2019-04-29T10:00:21.124Z,75.60
2019-04-29T10:02:54.452Z,75.80
2019-04-29T10:05:33.794Z,75.90
2019-04-29T10:08:02.573Z,75.70
2019-04-29T10:10:31.322Z,75.60
2019-04-29T10:13:00.012Z,75.90
2019-04-29T10:15:42.619Z,75.90
2019-04-29T10:18:29.758Z,76.20
2019-04-29T10:21:07.125Z,76.00
2019-04-29T10:23:35.802Z,75.70
2019-04-29T10:26:04.554Z,75.60
2019-04-29T10:28:34.908Z,75.90
2019-04-29T10:31:05.793Z,75.80
2019-04-29T10:33:34.483Z,76.00
2019-04-29T10:36:03.201Z,75.70
2019-04-29T10:38:31.884Z,75.80
2019-04-29T10:41:02.318Z,75.30
2019-04-29T10:43:41.495Z,75.60
2019-04-29T10:46:11.837Z,75.30
2019-04-29T10:48:42.162Z,75.90
2019-04-29T10:51:12.516Z,75.50
2019-04-29T10:53:41.186Z,75.40
2019-04-29T10:56:09.872Z,75.40
2019-04-29T10:58:38.603Z,75.60
2019-04-29T11:01:30.365Z,75.10
2019-04-29T11:04:00.945Z,75.10
2019-04-29T11:06:31.424Z,75.10
2019-04-29T11:09:03.007Z,74.80
2019-04-29T11:11:33.402Z,75.10
2019-04-29T11:14:03.165Z,75.70
2019-04-29T11:16:46.072Z,74.90
2019-04-29T11:19:05.313Z,74.90
2019-04-29T11:21:33.236Z,75.10
2019-04-29T11:24:12.130Z,74.80
2019-04-29T11:26:44.959Z,74.80
2019-04-29T11:29:13.704Z,75.10
2019-04-29T11:31:42.141Z,74.60
2019-04-29T11:34:16.029Z,74.50
2019-04-29T11:36:44.195Z,75.00
2019-04-29T11:39:15.192Z,74.50
2019-04-29T11:41:43.889Z,74.70
2019-04-29T11:44:12.585Z,74.70
2019-04-29T11:46:44.559Z,74.50
2019-04-29T11:49:12.946Z,74.50
2019-04-29T11:52:07.711Z,74.50
2019-04-29T11:54:17.895Z,74.60
2019-04-29T11:56:44.207Z,74.10
2019-04-29T11:59:14.594Z,73.80
2019-04-29T12:01:51.615Z,73.70
2019-04-29T12:04:19.660Z,74.30
2019-04-29T12:06:51.187Z,74.80
2019-04-29T12:09:18.753Z,74.40
2019-04-29T12:11:47.447Z,74.90
2019-04-29T12:14:37.966Z,75.10
2019-04-29T12:17:22.497Z,75.10
2019-04-29T12:20:02.161Z,75.00
2019-04-29T12:22:31.229Z,75.40
2019-04-29T12:24:59.985Z,75.20
2019-04-29T12:27:29.367Z,75.40
2019-04-29T12:29:59.536Z,75.70
2019-04-29T12:32:39.147Z,75.40
2019-04-29T12:35:16.677Z,76.20
2019-04-29T12:38:10.538Z,75.70
2019-04-29T12:40:50.167Z,75.60
2019-04-29T12:43:24.303Z,76.10
2019-04-29T12:45:57.583Z,76.60
2019-04-29T12:48:26.807Z,75.50
2019-04-29T12:50:57.565Z,75.50
2019-04-29T12:53:26.140Z,75.00
2019-04-29T12:55:56.364Z,75.60
2019-04-29T12:58:25.816Z,75.40
2019-04-29T13:01:00.531Z,74.60
2019-04-29T13:03:39.266Z,74.70
2019-04-29T13:06:11.764Z,75.60
2019-04-29T13:08:41.866Z,74.50
2019-04-29T13:11:10.278Z,74.30
2019-04-29T13:13:39.282Z,74.20
2019-04-29T13:16:12.447Z,74.80
2019-04-29T13:18:48.848Z,74.50
2019-04-29T13:21:16.052Z,74.10
2019-04-29T13:23:59.236Z,74.50
2019-04-29T13:26:27.284Z,74.80
2019-04-29T13:28:59.016Z,74.60
2019-04-29T13:31:15.651Z,74.40
2019-04-29T13:33:45.957Z,74.50
2019-04-29T13:36:19.743Z,74.30
2019-04-29T13:38:45.788Z,74.70
2019-04-29T13:41:23.693Z,74.80
2019-04-29T13:43:45.042Z,74.90
2019-04-29T13:46:31.619Z,75.00
2019-04-29T13:49:22.425Z,74.90
2019-04-29T13:51:52.531Z,74.10
2019-04-29T13:54:20.935Z,74.70
2019-04-29T13:56:56.204Z,74.80
2019-04-29T13:59:42.145Z,74.70
2019-04-29T14:02:12.921Z,74.50
2019-04-29T14:04:46.341Z,74.40
2019-04-29T14:07:18.281Z,74.60
2019-04-29T14:09:47.778Z,74.80
2019-04-29T14:12:47.124Z,74.60
2019-04-29T14:14:47.874Z,74.60
2019-04-29T14:17:25.813Z,74.60
2019-04-29T14:19:46.951Z,74.50
2019-04-29T14:22:22.318Z,74.50
2019-04-29T14:24:46.969Z,74.30
2019-04-29T14:27:24.426Z,74.60
2019-04-29T14:29:46.547Z,74.60
2019-04-29T14:32:18.290Z,74.70
2019-04-29T14:34:53.254Z,74.90
2019-04-29T14:37:25.159Z,74.80
2019-04-29T14:39:52.295Z,74.30
2019-04-29T14:42:29.685Z,74.50
2019-04-29T14:45:00.571Z,74.60
2019-04-29T14:47:30.930Z,74.70
2019-04-29T14:50:01.264Z,74.70
2019-04-29T14:52:29.941Z,74.80
2019-04-29T14:54:58.715Z,75.00
2019-04-29T14:57:27.419Z,75.70
2019-04-29T14:59:56.311Z,74.80
2019-04-29T15:02:26.952Z,74.80
2019-04-29T15:04:55.701Z,74.80
2019-04-29T15:07:24.400Z,74.70
2019-04-29T15:09:57.399Z,74.90
2019-04-29T15:12:30.953Z,75.00
2019-04-29T15:15:17.855Z,74.90
2019-04-29T15:18:15.562Z,75.00
2019-04-29T15:20:39.392Z,75.10
2019-04-29T15:23:08.062Z,75.00
2019-04-29T15:25:36.755Z,75.10
2019-04-29T15:28:05.479Z,75.10
2019-04-29T15:30:36.723Z,75.10
2019-04-29T15:33:04.903Z,74.80
2019-04-29T15:35:33.626Z,75.00
2019-04-29T15:38:02.307Z,75.00
2019-04-29T15:40:31.063Z,75.10
2019-04-29T15:42:59.791Z,75.20
2019-04-29T15:45:32.409Z,75.20
2019-04-29T15:47:58.807Z,75.20
2019-04-29T15:50:27.892Z,75.30
2019-04-29T15:52:58.862Z,75.30
2019-04-29T15:55:26.895Z,75.20
2019-04-29T15:57:55.631Z,75.20
2019-04-29T16:00:25.238Z,75.20
2019-04-29T16:02:54.441Z,75.10
2019-04-29T16:05:36.808Z,75.10
2019-04-29T16:08:29.379Z,74.90
2019-04-29T16:11:13.867Z,75.10
2019-04-29T16:13:47.972Z,75.00
2019-04-29T16:16:13.231Z,75.20
2019-04-29T16:18:41.953Z,75.40
2019-04-29T16:21:10.638Z,75.30
2019-04-29T16:23:40.353Z,75.50
2019-04-29T16:26:09.167Z,75.40
2019-04-29T16:28:40.127Z,75.40
2019-04-29T16:31:12.411Z,75.30
2019-04-29T16:33:38.584Z,75.30
2019-04-29T16:36:07.280Z,75.70
2019-04-29T16:38:35.963Z,75.70
2019-04-29T16:41:12.556Z,75.60
2019-04-29T16:43:40.967Z,75.50
2019-04-29T16:46:11.284Z,75.50
2019-04-29T16:48:39.995Z,75.40
2019-04-29T16:51:14.635Z,76.40
2019-04-29T16:53:39.033Z,75.40
2019-04-29T16:56:07.751Z,75.10
2019-04-29T16:58:36.435Z,75.10
2019-04-29T17:01:05.195Z,75.20
2019-04-29T17:03:33.915Z,75.00
2019-04-29T17:06:02.611Z,75.10
2019-04-29T17:08:32.972Z,75.00
2019-04-29T17:11:03.325Z,75.20
2019-04-29T17:13:32.362Z,75.40
2019-04-29T17:16:01.623Z,75.50
2019-04-29T17:18:30.403Z,75.60
2019-04-29T17:21:04.692Z,75.70
2019-04-29T17:23:29.499Z,75.70
2019-04-29T17:25:58.300Z,75.70
2019-04-29T17:28:44.859Z,75.70
2019-04-29T17:31:15.723Z,75.70
2019-04-29T17:33:54.108Z,75.60
2019-04-29T17:36:25.514Z,75.70
2019-04-29T17:38:53.470Z,75.70
2019-04-29T17:41:22.166Z,75.80
2019-04-29T17:43:58.441Z,75.60
2019-04-29T17:46:31.480Z,75.80
2019-04-29T17:49:16.498Z,75.60
2019-04-29T17:51:45.882Z,75.70
2019-04-29T17:54:28.132Z,75.90
2019-04-29T17:57:22.806Z,75.80
2019-04-29T17:59:36.674Z,75.80
2019-04-29T18:02:07.006Z,75.80
2019-04-29T18:04:37.348Z,75.90
2019-04-29T18:07:12.069Z,75.80
2019-04-29T18:09:39.690Z,75.80
2019-04-29T18:12:10.023Z,75.80
2019-04-29T18:14:41.790Z,75.90
2019-04-29T18:17:09.534Z,75.90
2019-04-29T18:19:47.169Z,75.90
2019-04-29T18:22:34.952Z,76.00
2019-04-29T18:25:30.726Z,76.00
2019-04-29T18:27:59.877Z,75.70
2019-04-29T18:30:35.434Z,75.70
2019-04-29T18:32:56.641Z,75.80
2019-04-29T18:35:25.618Z,76.00
2019-04-29T18:37:55.702Z,76.00
2019-04-29T18:40:25.823Z,76.10
2019-04-29T18:42:55.426Z,76.20
2019-04-29T18:45:25.373Z,76.20
2019-04-29T18:47:54.629Z,76.20
2019-04-29T18:50:23.314Z,76.10
2019-04-29T18:52:52.002Z,76.20
2019-04-29T18:55:20.736Z,76.10
2019-04-29T18:57:49.410Z,76.00
2019-04-29T19:00:19.893Z,76.80
2019-04-29T19:02:56.952Z,76.10
2019-04-29T19:05:20.688Z,76.10
2019-04-29T19:07:55.170Z,76.10
2019-04-29T19:10:19.735Z,76.00
2019-04-29T19:12:57.515Z,76.10
2019-04-29T19:15:18.774Z,76.20
2019-04-29T19:17:58.761Z,76.10
2019-04-29T19:20:18.604Z,76.20
2019-04-29T19:22:47.565Z,76.20
2019-04-29T19:25:16.287Z,76.30
2019-04-29T19:27:45.429Z,76.20
2019-04-29T19:30:20.733Z,76.30
2019-04-29T19:32:46.729Z,76.00
2019-04-29T19:35:16.938Z,76.30
2019-04-29T19:37:45.807Z,76.30
2019-04-29T19:40:14.998Z,76.20
2019-04-29T19:42:46.949Z,76.30
2019-04-29T19:45:15.523Z,77.10
2019-04-29T19:47:48.766Z,76.40
2019-04-29T19:50:18.292Z,76.40
2019-04-29T19:52:45.475Z,76.30
2019-04-29T19:55:14.270Z,76.40
2019-04-29T19:57:48.214Z,76.40
2019-04-29T20:00:14.101Z,76.50
2019-04-29T20:02:46.418Z,76.60
2019-04-29T20:05:16.447Z,76.40
2019-04-29T20:07:49.734Z,76.40
2019-04-29T20:10:17.411Z,76.50
2019-04-29T20:12:52.997Z,76.30
2019-04-29T20:15:17.610Z,76.30
2019-04-29T20:18:05.346Z,76.10
2019-04-29T20:20:38.983Z,76.60
2019-04-29T20:23:07.921Z,76.30
2019-04-29T20:25:38.591Z,76.40
2019-04-29T20:28:12.749Z,76.20
2019-04-29T20:30:37.631Z,76.30
2019-04-29T20:33:11.076Z,76.50
2019-04-29T20:35:40.267Z,76.70
2019-04-29T20:38:07.216Z,76.40
2019-04-29T20:40:42.673Z,76.60
2019-04-29T20:43:08.264Z,76.70
2019-04-29T20:45:36.888Z,76.60
2019-04-29T20:48:06.452Z,76.60
2019-04-29T20:50:35.600Z,76.40
2019-04-29T20:53:06.287Z,76.50
2019-04-29T20:55:36.768Z,76.70
2019-04-29T20:58:06.546Z,76.50
2019-04-29T21:00:37.286Z,76.30
2019-04-29T21:03:09.490Z,76.80
2019-04-29T21:05:47.469Z,76.80
2019-04-29T21:08:14.682Z,76.90
2019-04-29T21:10:37.980Z,76.80
2019-04-29T21:13:20.352Z,76.80
2019-04-29T21:15:53.775Z,77.50
2019-04-29T21:18:23.066Z,76.90
2019-04-29T21:20:51.741Z,76.70
2019-04-29T21:23:20.487Z,76.90
2019-04-29T21:25:49.169Z,76.80
2019-04-29T21:28:17.859Z,77.00
2019-04-29T21:30:46.634Z,76.90
2019-04-29T21:33:20.995Z,77.00
2019-04-29T21:35:54.429Z,76.80
2019-04-29T21:38:41.954Z,76.80
2019-04-29T21:41:21.868Z,76.70
2019-04-29T21:43:53.411Z,77.00
2019-04-29T21:46:25.745Z,76.60
2019-04-29T21:48:53.654Z,76.80
2019-04-29T21:51:22.397Z,76.90
2019-04-29T21:53:51.093Z,77.00
2019-04-29T21:56:19.799Z,76.90
2019-04-29T21:58:48.485Z,77.00
2019-04-29T22:01:18.044Z,77.00
2019-04-29T22:03:46.774Z,77.10
2019-04-29T22:06:15.461Z,77.00
2019-04-29T22:08:45.238Z,77.30
2019-04-29T22:11:15.525Z,77.10
2019-04-29T22:13:45.258Z,76.80
2019-04-29T22:16:15.751Z,77.00
2019-04-29T22:18:44.678Z,76.90
2019-04-29T22:21:21.739Z,77.10
2019-04-29T22:23:51.166Z,77.20
2019-04-29T22:26:22.694Z,77.20
2019-04-29T22:28:48.653Z,76.90
2019-04-29T22:31:18.245Z,77.30
2019-04-29T22:33:48.924Z,77.20
2019-04-29T22:36:18.267Z,77.00
2019-04-29T22:38:48.689Z,76.90
2019-04-29T22:41:20.276Z,76.80
2019-04-29T22:43:54.669Z,76.60
2019-04-29T22:46:25.476Z,76.60
2019-04-29T22:48:55.780Z,76.80
2019-04-29T22:51:25.475Z,77.10
2019-04-29T22:53:55.811Z,77.10
2019-04-29T22:56:27.645Z,77.00
2019-04-29T22:58:55.969Z,76.90
2019-04-29T23:01:25.934Z,77.10
2019-04-29T23:03:55.398Z,77.00
2019-04-29T23:06:25.820Z,77.00
2019-04-29T23:08:56.132Z,77.20
2019-04-29T23:11:24.968Z,77.00
2019-04-29T23:13:55.323Z,77.10
2019-04-29T23:16:24.239Z,76.90
2019-04-29T23:18:55.133Z,77.00
2019-04-29T23:21:42.876Z,77.30
2019-04-29T23:24:21.303Z,76.90
2019-04-29T23:26:49.981Z,77.00
2019-04-29T23:29:18.689Z,76.80
2019-04-29T23:31:47.434Z,76.60
2019-04-29T23:34:16.115Z,77.10
2019-04-29T23:36:48.968Z,76.90
2019-04-29T23:39:15.191Z,77.10
2019-04-29T23:41:45.099Z,77.10
2019-04-29T23:44:13.869Z,77.30
2019-04-29T23:46:42.591Z,77.10
2019-04-29T23:49:11.309Z,77.00
2019-04-29T23:51:40.006Z,77.00
2019-04-29T23:54:08.716Z,77.30
2019-04-29T23:56:46.584Z,77.20
2019-04-29T23:59:18.276Z,77.20
